Terminal Aerodrome Forecast
Issued by NWS

Home | Current Version | Previous Version | Text Only | Print | Product List | Glossary On
Versions: 1 2 3 4 5 6 7 8 9 10 11 12 13 14 15 16 17
000
FTUS42 KFFC 012326
TAFFTY
TAF
KFTY 012326Z 0200/0224 17008KT 5SM -RA BR SCT010 BKN025
      TEMPO 0200/0202 4SM RA BR SCT007 OVC010
     FM020200 19009KT 3SM -RA BR OVC007
     FM020800 26010KT 3SM -RA BKN008 OVC012
     FM021000 29010G20KT 5SM -RA SCT008 OVC012
     FM021500 30012G22KT P6SM SCT020 BKN035
     FM021800 31014G24KT P6SM SCT050=

USA.gov is the U.S. government's official web portal to all federal, state and local government web resources and services.